首页
METAR-TAF:

METAR-TAF

机场 :

香港國際機場

香港, 中华人民共和国

纬度: 22-19N, 经度: 113-55E, 海拔: 9米

当前天气观测

该预报发布于32分钟前的11:00 UTC
风速7节,风向东南,在南转西南之间变化
温度 30°C
湿度 75%
气压 1007 hPa
能见度10公里或以上
少量云层高于1500英尺

METAR: VHHH 201100Z 13007KT 080V200 9999 FEW015 30/25 Q1007 NOSIG

时间: 19:32 (11:32 UTC)

预报

该预报发布于3小时和36分钟前的07:56 UTC
预报有效从20日的 08点(UTC)到 21日的 12点(UTC)
风速10节,风向
能见度10公里或以上
少量云层高于1500英尺
散云层高于2500英尺
短暂存在
从 20日的 11点(UTC)到 20日的 18点(UTC)
风速10节,风向北转西北
能見度: 3500
少量云层高于1000英尺, 积雨云.
散云层高于2000英尺
阵雨
短暂存在
从 20日的 20点(UTC)到 21日的 06点(UTC)
能見度: 3500
少量云层高于1000英尺, 积雨云.
散云层高于2000英尺
阵雨

TAF: VHHH 200756Z 2008/2112 08010KT 9999 FEW015 SCT025 TX28/2106Z TN26/2022Z TEMPO 2011/2018 33010KT 3500 SHRA FEW010CB SCT020 TEMPO 2020/2106 3500 SHRA FEW010CB SCT020

超过4000个机场的气象观测和天气预报(METAR&TAF报告)。

可查询的气象台以黄色和红色小点在地图上表示。

将鼠标移到小点上方,可查看气象台名称。

然后点击查看天气观测和预报。

如需切换地图:点击带黑十字的绿色按钮放大地图;点击带横线的绿色按钮缩小地图;或者点击绿色箭头查看邻近地区的地图。


METAR-TAF: